Time;durP1;ratioP1;P1;durP2;ratioP2;P2;SDS_P1;SDS_P2;PMS_P1;PMS_P2;Temp;Humidity;BMP_temperature;BMP_pressure;BME280_temperature;BME280_humidity;BME280_pressure;Samples;Min_cycle;Max_cycle;Signal;HPM_P1;HPM_P2
2021/08/31 00:01:37;;;;;;;20.90;17.88;;;19.90;99.90;;;;;;4874000;29;20072;-91
2021/08/31 00:04:02;;;;;;;26.27;22.77;;;20.00;99.90;;;;;;4855161;29;20466;-91
2021/08/31 00:06:28;;;;;;;23.02;19.42;;;20.00;99.90;;;;;;4853847;29;20033;-91
2021/08/31 00:08:54;;;;;;;24.30;19.77;;;20.00;99.90;;;;;;4855206;29;20052;-90
2021/08/31 00:11:21;;;;;;;22.67;19.48;;;20.00;99.90;;;;;;4855744;29;20286;-90
2021/08/31 00:13:46;;;;;;;23.52;19.38;;;20.00;99.90;;;;;;4856447;29;20026;-90
2021/08/31 00:16:12;;;;;;;26.30;22.30;;;20.00;99.90;;;;;;4855202;29;20033;-90
2021/08/31 00:18:38;;;;;;;25.98;21.75;;;20.00;99.90;;;;;;4855088;29;20035;-90
2021/08/31 00:21:04;;;;;;;21.23;18.98;;;20.00;99.90;;;;;;4856283;29;20026;-91
2021/08/31 00:23:30;;;;;;;19.08;16.95;;;20.00;99.90;;;;;;4856006;29;20029;-90
2021/08/31 00:25:55;;;;;;;20.48;17.98;;;19.90;99.90;;;;;;4856001;29;20465;-90
2021/08/31 00:28:21;;;;;;;21.80;18.10;;;20.00;99.90;;;;;;4857343;29;20030;-90
2021/08/31 00:30:48;;;;;;;20.70;18.55;;;20.00;99.90;;;;;;4871187;29;20037;-90
2021/08/31 00:33:14;;;;;;;21.77;19.40;;;20.00;99.90;;;;;;4856449;29;20025;-91
2021/08/31 00:35:40;;;;;;;26.45;23.55;;;20.00;99.90;;;;;;4872341;29;20033;-91
2021/08/31 00:38:05;;;;;;;21.90;19.05;;;20.00;99.90;;;;;;4871740;29;20065;-91
2021/08/31 00:40:31;;;;;;;23.60;19.08;;;20.00;99.90;;;;;;4872470;29;20084;-91
2021/08/31 00:42:57;;;;;;;24.95;20.48;;;20.00;99.90;;;;;;4857559;29;20089;-91
2021/08/31 00:45:24;;;;;;;23.27;20.17;;;20.00;99.90;;;;;;4856464;29;20040;-90
2021/08/31 00:47:50;;;;;;;22.38;19.60;;;20.00;99.90;;;;;;4873286;29;20033;-90
2021/08/31 00:50:17;;;;;;;23.13;20.38;;;20.00;99.90;;;;;;4857484;29;20106;-91
2021/08/31 00:52:43;;;;;;;23.90;20.13;;;20.00;99.90;;;;;;4856072;29;20033;-90
2021/08/31 00:55:11;;;;;;;25.98;22.13;;;20.00;99.90;;;;;;4871124;29;20041;-90
2021/08/31 00:57:40;;;;;;;27.30;23.08;;;20.00;99.90;;;;;;4854704;29;20033;-90
2021/08/31 01:00:09;;;;;;;23.65;21.10;;;20.00;99.90;;;;;;4855715;29;20029;-90
2021/08/31 01:02:35;;;;;;;29.45;25.25;;;20.00;99.90;;;;;;4854781;29;20521;-90
2021/08/31 01:05:01;;;;;;;31.55;25.02;;;20.00;99.90;;;;;;4872519;29;20038;-91
2021/08/31 01:07:27;;;;;;;31.42;26.58;;;20.00;99.90;;;;;;4856674;29;20038;-91
2021/08/31 01:09:53;;;;;;;28.13;24.42;;;19.90;99.90;;;;;;4872954;29;20061;-91
2021/08/31 01:12:19;;;;;;;24.92;22.10;;;19.90;99.90;;;;;;4856044;29;20446;-91
2021/08/31 01:14:47;;;;;;;26.15;22.27;;;19.90;99.90;;;;;;4856936;29;20034;-91
2021/08/31 01:17:13;;;;;;;26.48;23.65;;;19.90;99.90;;;;;;4873678;29;20512;-91
2021/08/31 01:19:39;;;;;;;26.60;22.67;;;19.90;99.90;;;;;;4857444;29;20033;-90
2021/08/31 01:22:10;;;;;;;27.60;23.02;;;19.90;99.90;;;;;;4873440;29;20041;-91
2021/08/31 01:24:39;;;;;;;34.17;26.92;;;19.90;99.90;;;;;;4872145;29;20142;-91
2021/08/31 01:27:04;;;;;;;34.13;27.00;;;19.90;99.90;;;;;;4856244;29;20439;-90
2021/08/31 01:29:32;;;;;;;34.28;28.67;;;19.90;99.90;;;;;;4875102;29;20037;-91
2021/08/31 01:32:00;;;;;;;27.00;24.08;;;19.90;99.90;;;;;;4858353;29;20067;-91
2021/08/31 01:34:26;;;;;;;29.98;23.45;;;19.80;99.90;;;;;;4854553;29;20093;-90
2021/08/31 01:36:53;;;;;;;31.08;23.98;;;19.80;99.90;;;;;;4855972;29;20033;-91
2021/08/31 01:39:19;;;;;;;32.10;25.35;;;19.80;99.90;;;;;;4854841;29;20430;-90
2021/08/31 01:41:44;;;;;;;33.03;26.58;;;19.80;99.90;;;;;;4854362;29;20040;-90
2021/08/31 01:44:10;;;;;;;37.10;28.40;;;19.80;99.90;;;;;;4869564;29;20038;-90
2021/08/31 01:46:36;;;;;;;32.45;26.63;;;19.70;99.90;;;;;;4854594;29;20029;-91
2021/08/31 01:49:02;;;;;;;26.20;22.23;;;19.70;99.90;;;;;;4870519;29;20030;-90
2021/08/31 01:51:28;;;;;;;31.08;24.85;;;19.70;99.90;;;;;;4854803;29;20053;-91
2021/08/31 01:53:54;;;;;;;31.35;23.52;;;19.70;99.90;;;;;;4854457;29;20102;-91
2021/08/31 01:56:19;;;;;;;33.80;23.67;;;19.60;99.90;;;;;;4871356;29;20047;-90
2021/08/31 01:58:45;;;;;;;31.23;21.90;;;19.60;99.90;;;;;;4854910;29;20030;-90
2021/08/31 02:01:11;;;;;;;31.77;24.27;;;19.60;99.90;;;;;;4853797;29;20045;-91
2021/08/31 02:03:38;;;;;;;31.45;21.08;;;19.60;99.90;;;;;;4872258;29;20442;-90
2021/08/31 02:06:04;;;;;;;30.08;20.20;;;19.50;99.90;;;;;;4854322;29;20033;-91
2021/08/31 02:08:29;;;;;;;31.08;23.33;;;19.50;99.90;;;;;;4855723;29;20036;-90
2021/08/31 02:10:55;;;;;;;29.80;20.90;;;19.50;99.90;;;;;;4870963;29;20062;-91
2021/08/31 02:13:21;;;;;;;27.90;20.85;;;19.50;99.90;;;;;;4855725;29;20029;-90
2021/08/31 02:15:47;;;;;;;29.55;20.83;;;19.40;99.90;;;;;;4855376;29;20055;-90
2021/08/31 02:18:12;;;;;;;28.10;21.13;;;19.40;99.90;;;;;;4855912;29;20033;-91
2021/08/31 02:20:38;;;;;;;27.70;19.27;;;19.40;99.90;;;;;;4857277;29;20026;-90
2021/08/31 02:23:04;;;;;;;25.40;19.38;;;19.40;99.90;;;;;;4855406;29;20025;-90
2021/08/31 02:25:30;;;;;;;31.70;20.05;;;19.40;99.90;;;;;;4872814;29;20473;-91
2021/08/31 02:27:55;;;;;;;24.80;18.80;;;19.40;99.90;;;;;;4853738;29;20054;-90
2021/08/31 02:30:21;;;;;;;28.15;20.77;;;19.30;99.90;;;;;;4868963;29;20026;-90
2021/08/31 02:32:48;;;;;;;25.25;19.17;;;19.30;99.90;;;;;;4852471;29;20064;-90
2021/08/31 02:35:14;;;;;;;21.13;17.33;;;19.20;99.90;;;;;;4853864;29;20093;-90
2021/08/31 02:37:40;;;;;;;29.30;21.45;;;19.20;99.90;;;;;;4853390;29;20271;-90
2021/08/31 02:40:06;;;;;;;29.98;20.60;;;19.10;99.90;;;;;;4852903;29;20089;-90
2021/08/31 02:42:32;;;;;;;29.42;19.88;;;19.10;99.90;;;;;;4872347;29;20030;-90
2021/08/31 02:44:58;;;;;;;31.45;22.25;;;19.00;99.90;;;;;;4853956;29;20111;-91
2021/08/31 02:47:24;;;;;;;28.48;21.17;;;19.00;99.90;;;;;;4854251;29;20032;-90
2021/08/31 02:49:49;;;;;;;33.40;21.52;;;18.90;99.90;;;;;;4853886;29;20036;-90
2021/08/31 02:52:16;;;;;;;27.48;19.58;;;18.90;99.90;;;;;;4853159;29;20034;-90
2021/08/31 02:54:42;;;;;;;29.02;18.90;;;18.80;99.90;;;;;;4856194;29;20124;-91
2021/08/31 02:57:08;;;;;;;29.45;19.17;;;18.80;99.90;;;;;;4873733;29;20128;-90
2021/08/31 02:59:34;;;;;;;25.15;18.92;;;18.80;99.90;;;;;;4858200;29;20033;-90
2021/08/31 03:02:06;;;;;;;28.35;19.40;;;18.70;99.90;;;;;;4857496;29;20056;-90
2021/08/31 03:04:38;;;;;;;29.80;19.93;;;18.70;99.90;;;;;;4856099;29;20034;-90
2021/08/31 03:07:15;;;;;;;24.27;17.80;;;18.70;99.90;;;;;;4856124;29;20029;-90
2021/08/31 03:09:42;;;;;;;23.98;18.13;;;18.60;99.90;;;;;;4857853;29;20037;-90
2021/08/31 03:12:08;;;;;;;29.98;19.00;;;18.50;99.90;;;;;;4857765;29;20061;-90
2021/08/31 03:14:34;;;;;;;25.02;18.25;;;18.50;99.90;;;;;;4857999;29;20086;-90
2021/08/31 03:16:59;;;;;;;24.08;17.50;;;18.40;99.90;;;;;;4862729;29;20466;-90
2021/08/31 03:19:26;;;;;;;28.45;17.52;;;18.40;99.90;;;;;;4861916;29;20029;-90
2021/08/31 03:21:58;;;;;;;28.45;18.30;;;18.40;99.90;;;;;;4859806;29;20091;-90
2021/08/31 03:24:24;;;;;;;25.83;19.85;;;18.30;99.90;;;;;;4874035;29;20038;-90
2021/08/31 03:26:51;;;;;;;26.88;19.10;;;18.30;99.90;;;;;;4857445;29;20067;-90
2021/08/31 03:29:17;;;;;;;25.52;17.90;;;18.30;99.90;;;;;;4855387;29;20033;-90
2021/08/31 03:31:43;;;;;;;26.70;18.98;;;18.20;99.90;;;;;;4857109;29;20029;-90
2021/08/31 03:34:08;;;;;;;24.80;19.25;;;18.20;99.90;;;;;;4855780;29;20045;-90
2021/08/31 03:36:34;;;;;;;25.95;18.05;;;18.20;99.90;;;;;;4858017;29;20497;-90
2021/08/31 03:39:00;;;;;;;24.35;17.20;;;18.20;99.90;;;;;;4856434;29;20034;-90
2021/08/31 03:41:26;;;;;;;27.63;19.40;;;18.20;99.90;;;;;;4856851;29;20068;-90
2021/08/31 03:43:52;;;;;;;28.73;19.70;;;18.20;99.90;;;;;;4855665;29;20037;-90
2021/08/31 03:46:17;;;;;;;25.30;17.35;;;18.10;99.90;;;;;;4857207;29;20033;-90
2021/08/31 03:48:43;;;;;;;24.50;18.67;;;18.10;99.90;;;;;;4855639;29;20030;-90
2021/08/31 03:51:09;;;;;;;26.95;18.08;;;18.10;99.90;;;;;;4856658;29;20035;-90
2021/08/31 03:53:35;;;;;;;28.50;20.23;;;18.00;99.90;;;;;;4870062;29;20477;-90
2021/08/31 03:56:00;;;;;;;30.42;19.23;;;18.00;99.90;;;;;;4854783;29;20073;-89
2021/08/31 03:58:26;;;;;;;26.58;18.77;;;18.00;99.90;;;;;;4854223;29;20036;-89
2021/08/31 04:00:52;;;;;;;23.80;17.58;;;17.90;99.90;;;;;;4855918;29;20038;-90
2021/08/31 04:03:18;;;;;;;18.80;13.65;;;17.90;99.90;;;;;;4855843;29;20053;-89
2021/08/31 04:05:44;;;;;;;26.10;16.48;;;17.90;99.90;;;;;;4872952;29;20461;-90
2021/08/31 04:08:10;;;;;;;22.92;15.82;;;17.90;99.90;;;;;;4872066;29;20030;-89
2021/08/31 04:10:37;;;;;;;20.35;15.43;;;17.90;99.90;;;;;;4873128;29;20107;-90
2021/08/31 04:13:17;;;;;;;;;;;;;;;;;;;;;
2021/08/31 04:15:44;;;;;;;22.45;16.75;;;17.90;99.90;;;;;;4874460;29;20097;-91
2021/08/31 04:18:09;;;;;;;25.23;16.95;;;17.90;99.90;;;;;;4857311;29;20475;-90
2021/08/31 04:20:35;;;;;;;18.92;13.57;;;17.90;99.90;;;;;;4856364;29;20120;-91
2021/08/31 04:23:01;;;;;;;23.02;16.65;;;17.90;99.90;;;;;;4857730;29;20029;-91
2021/08/31 04:25:27;;;;;;;20.77;15.82;;;18.00;99.90;;;;;;4874494;29;20091;-90
2021/08/31 04:27:53;;;;;;;19.95;15.55;;;18.00;99.90;;;;;;4857004;29;20486;-89
2021/08/31 04:30:18;;;;;;;23.73;17.40;;;18.00;99.90;;;;;;4857060;29;20033;-89
2021/08/31 04:32:45;;;;;;;22.38;15.63;;;18.10;99.90;;;;;;4873971;29;20812;-90
2021/08/31 04:35:11;;;;;;;25.40;17.27;;;18.10;99.90;;;;;;4856076;29;20040;-90
2021/08/31 04:37:37;;;;;;;23.75;17.50;;;18.10;99.90;;;;;;4857072;29;20126;-90
2021/08/31 04:40:03;;;;;;;21.10;18.05;;;18.20;99.90;;;;;;4874108;29;20032;-90
2021/08/31 04:42:29;;;;;;;23.55;17.88;;;18.20;99.90;;;;;;4856559;29;20033;-90
2021/08/31 04:44:55;;;;;;;22.27;17.17;;;18.20;99.90;;;;;;4871365;29;20037;-89
2021/08/31 04:47:20;;;;;;;22.35;17.23;;;18.10;99.90;;;;;;4855449;29;20033;-90
2021/08/31 04:49:47;;;;;;;22.73;17.15;;;18.20;99.90;;;;;;4855600;29;20033;-90
2021/08/31 04:52:13;;;;;;;23.00;15.73;;;18.20;99.90;;;;;;4871766;29;20085;-90
2021/08/31 04:54:39;;;;;;;22.42;15.32;;;18.10;99.90;;;;;;4858011;29;20037;-90
2021/08/31 04:57:05;;;;;;;17.70;14.95;;;18.20;99.90;;;;;;4871775;29;20170;-90
2021/08/31 04:59:30;;;;;;;19.75;15.80;;;18.20;99.90;;;;;;4855074;29;20037;-90
2021/08/31 05:01:56;;;;;;;16.73;14.48;;;18.20;99.90;;;;;;4855900;29;20121;-90
2021/08/31 05:04:28;;;;;;;17.90;14.27;;;18.20;99.90;;;;;;4855148;29;20033;-89
2021/08/31 05:06:54;;;;;;;18.98;15.90;;;18.20;99.90;;;;;;4854875;29;20485;-90
2021/08/31 05:09:19;;;;;;;15.18;12.85;;;18.20;99.90;;;;;;4871310;29;20034;-90
2021/08/31 05:11:45;;;;;;;18.13;14.02;;;18.20;99.90;;;;;;4854755;29;20033;-90
2021/08/31 05:14:11;;;;;;;17.55;14.43;;;18.30;99.90;;;;;;4854014;29;20037;-91
2021/08/31 05:16:37;;;;;;;18.17;13.43;;;18.30;99.90;;;;;;4852930;29;20123;-90
2021/08/31 05:19:03;;;;;;;17.30;13.30;;;18.30;99.90;;;;;;4870483;29;20033;-90
2021/08/31 05:21:30;;;;;;;14.60;12.30;;;18.30;99.90;;;;;;4853381;29;20030;-90
2021/08/31 05:23:56;;;;;;;16.08;13.73;;;18.40;99.90;;;;;;4852620;29;20474;-91
2021/08/31 05:26:22;;;;;;;15.77;13.50;;;18.40;99.90;;;;;;4851452;29;20105;-91
2021/08/31 05:28:48;;;;;;;15.48;13.85;;;18.40;99.90;;;;;;4851383;29;20070;-91
2021/08/31 05:31:14;;;;;;;17.58;13.77;;;18.40;99.90;;;;;;4852004;29;20553;-90
2021/08/31 05:33:39;;;;;;;17.45;13.68;;;18.50;99.90;;;;;;4852196;29;20116;-90
2021/08/31 05:36:05;;;;;;;15.27;12.23;;;18.50;99.90;;;;;;4852369;29;20052;-90
2021/08/31 05:38:31;;;;;;;20.20;14.43;;;18.50;99.90;;;;;;4851240;29;20063;-90
2021/08/31 05:40:57;;;;;;;16.55;13.90;;;18.60;99.90;;;;;;4852195;29;20049;-90
2021/08/31 05:43:23;;;;;;;14.73;13.18;;;18.60;99.90;;;;;;4854504;29;20068;-90
2021/08/31 05:45:49;;;;;;;15.10;13.23;;;18.60;99.90;;;;;;4853176;29;20037;-90
2021/08/31 05:48:15;;;;;;;18.02;14.15;;;18.70;99.90;;;;;;4851207;29;20036;-90
2021/08/31 05:50:40;;;;;;;15.95;12.95;;;18.70;99.90;;;;;;4853989;29;20030;-91
2021/08/31 05:53:06;;;;;;;17.42;12.82;;;18.70;99.90;;;;;;4867136;29;20033;-90
2021/08/31 05:55:32;;;;;;;16.40;13.30;;;18.80;99.90;;;;;;4851686;29;20033;-90
2021/08/31 05:57:58;;;;;;;14.35;12.35;;;18.80;99.90;;;;;;4852775;29;20429;-90
2021/08/31 06:00:24;;;;;;;16.88;13.05;;;18.90;99.90;;;;;;4854163;29;20030;-91
2021/08/31 06:02:50;;;;;;;15.23;12.52;;;18.90;99.90;;;;;;4852138;29;20078;-90
2021/08/31 06:05:15;;;;;;;14.38;11.98;;;18.90;99.90;;;;;;4851588;29;20033;-91
2021/08/31 06:07:42;;;;;;;14.23;12.43;;;19.00;99.90;;;;;;4851461;29;20430;-90
2021/08/31 06:10:09;;;;;;;17.13;13.30;;;19.00;99.90;;;;;;4851588;29;20033;-91
2021/08/31 06:12:34;;;;;;;13.45;11.98;;;19.00;99.90;;;;;;4852035;29;20055;-91
2021/08/31 06:15:00;;;;;;;16.27;14.20;;;19.10;99.90;;;;;;4869639;29;20042;-90
2021/08/31 06:17:27;;;;;;;15.10;12.73;;;19.20;99.90;;;;;;4851896;29;20124;-91
2021/08/31 06:19:53;;;;;;;12.95;11.55;;;19.20;99.90;;;;;;4866433;29;20045;-91
2021/08/31 06:22:18;;;;;;;14.68;12.60;;;19.20;99.90;;;;;;4868042;29;20061;-91
2021/08/31 06:24:45;;;;;;;15.20;13.50;;;19.30;99.90;;;;;;4852573;29;20034;-91
2021/08/31 06:27:12;;;;;;;15.13;13.40;;;19.40;99.90;;;;;;4849981;29;20055;-91
2021/08/31 06:29:37;;;;;;;17.20;14.98;;;19.40;99.90;;;;;;4866828;29;20064;-91
2021/08/31 06:32:04;;;;;;;16.05;14.40;;;19.60;99.90;;;;;;4866296;29;20030;-90
2021/08/31 06:34:30;;;;;;;18.48;15.65;;;19.60;99.90;;;;;;4849264;29;20040;-90
2021/08/31 06:36:56;;;;;;;17.48;15.35;;;19.70;99.90;;;;;;4866983;29;20037;-91
2021/08/31 06:39:22;;;;;;;16.50;14.77;;;19.90;99.90;;;;;;4865275;29;20033;-91
2021/08/31 06:41:48;;;;;;;15.20;13.70;;;20.00;99.90;;;;;;4850840;29;20053;-91
2021/08/31 06:44:13;;;;;;;16.00;14.27;;;20.10;99.70;;;;;;4849993;29;20385;-91
2021/08/31 06:46:39;;;;;;;14.98;13.27;;;20.10;99.40;;;;;;4868014;29;20052;-91
2021/08/31 06:49:05;;;;;;;13.77;11.93;;;20.20;99.30;;;;;;4867889;29;20033;-92
2021/08/31 06:51:31;;;;;;;14.15;11.32;;;20.40;98.60;;;;;;4868644;29;20033;-90
2021/08/31 06:54:06;;;;;;;11.50;10.30;;;20.40;97.70;;;;;;4860864;29;20022;-92
2021/08/31 06:56:31;;;;;;;11.07;9.55;;;20.40;97.70;;;;;;4860668;29;20061;-90
2021/08/31 06:58:57;;;;;;;11.30;10.10;;;20.40;97.30;;;;;;4859030;29;20029;-90
2021/08/31 07:01:23;;;;;;;11.13;9.68;;;20.50;96.60;;;;;;4851022;29;20037;-90
2021/08/31 07:03:49;;;;;;;11.85;10.05;;;20.50;96.40;;;;;;4847550;29;20058;-90
2021/08/31 07:06:14;;;;;;;11.82;10.23;;;20.60;95.80;;;;;;4846300;29;20025;-90
2021/08/31 07:08:40;;;;;;;9.75;7.55;;;20.60;95.70;;;;;;4849299;29;20045;-91
2021/08/31 07:11:06;;;;;;;13.52;9.23;;;20.70;96.30;;;;;;4865314;29;20046;-94
2021/08/31 07:13:32;;;;;;;11.48;9.05;;;20.70;95.60;;;;;;4849623;29;20029;-93
2021/08/31 07:15:57;;;;;;;9.82;8.48;;;20.70;95.40;;;;;;4845482;29;20049;-92
2021/08/31 07:18:23;;;;;;;9.48;8.38;;;20.80;95.60;;;;;;4829169;29;20026;-93
2021/08/31 07:20:49;;;;;;;9.55;8.35;;;20.80;95.00;;;;;;4863993;29;20034;-91
2021/08/31 07:23:15;;;;;;;9.15;8.25;;;20.90;94.10;;;;;;4845862;29;20049;-91
2021/08/31 07:25:46;;;;;;;8.75;7.85;;;20.90;93.60;;;;;;4865463;29;20108;-91
2021/08/31 07:28:16;;;;;;;9.63;7.22;;;21.00;93.20;;;;;;4853991;29;20060;-91
2021/08/31 07:30:45;;;;;;;8.40;6.85;;;21.00;92.50;;;;;;4865411;29;20033;-93
2021/08/31 07:33:12;;;;;;;7.43;6.15;;;21.10;92.60;;;;;;4864309;29;20036;-92
2021/08/31 07:35:38;;;;;;;7.20;6.25;;;21.10;91.30;;;;;;4850588;29;20404;-92
2021/08/31 07:38:06;;;;;;;7.05;5.78;;;21.20;91.00;;;;;;4852724;29;20930;-91
2021/08/31 07:40:32;;;;;;;7.03;5.63;;;21.20;90.80;;;;;;4838660;29;20046;-91
2021/08/31 07:42:58;;;;;;;7.03;5.85;;;21.30;90.00;;;;;;4839107;29;20443;-91
2021/08/31 07:45:27;;;;;;;6.13;5.53;;;21.30;89.60;;;;;;4857964;29;20030;-92
2021/08/31 07:47:52;;;;;;;9.93;6.10;;;21.30;88.60;;;;;;4849734;29;20033;-90
2021/08/31 07:50:21;;;;;;;6.40;5.63;;;21.40;87.10;;;;;;4848276;29;20085;-91
2021/08/31 07:52:47;;;;;;;6.35;5.10;;;21.50;87.40;;;;;;4848165;29;20033;-92
2021/08/31 07:55:14;;;;;;;5.85;4.93;;;21.50;86.50;;;;;;4849379;29;20033;-92
2021/08/31 07:57:48;;;;;;;6.10;5.38;;;21.60;84.90;;;;;;4855707;29;20052;-92
2021/08/31 08:00:16;;;;;;;5.15;4.40;;;21.60;84.40;;;;;;4848067;29;20047;-91
2021/08/31 08:02:42;;;;;;;5.43;4.65;;;21.60;84.50;;;;;;4848063;29;20073;-93
2021/08/31 08:05:15;;;;;;;5.70;4.60;;;21.70;84.80;;;;;;4852895;29;20098;-92
2021/08/31 08:07:40;;;;;;;4.82;4.38;;;21.90;84.20;;;;;;4857142;29;20119;-92
2021/08/31 08:10:08;;;;;;;5.40;4.30;;;22.00;83.20;;;;;;4852228;29;20076;-93
2021/08/31 08:12:34;;;;;;;5.68;4.80;;;22.00;82.40;;;;;;4853611;29;20059;-92
2021/08/31 08:15:00;;;;;;;5.40;4.18;;;22.10;80.70;;;;;;4866958;29;20037;-90
2021/08/31 08:17:26;;;;;;;5.10;4.22;;;22.10;80.10;;;;;;4849230;29;20120;-92
2021/08/31 08:19:52;;;;;;;4.78;4.03;;;22.20;79.70;;;;;;4847641;29;20102;-92
2021/08/31 08:22:18;;;;;;;4.90;3.60;;;22.30;78.70;;;;;;4846789;29;20029;-90
2021/08/31 08:24:45;;;;;;;4.10;3.67;;;22.30;76.90;;;;;;4848359;29;20393;-93
2021/08/31 08:27:14;;;;;;;4.85;3.60;;;22.30;75.80;;;;;;4866490;29;20063;-91
2021/08/31 08:29:40;;;;;;;4.22;3.80;;;22.30;75.20;;;;;;4847396;29;20041;-91
2021/08/31 08:32:10;;;;;;;4.50;3.58;;;22.30;74.70;;;;;;4834990;29;20050;-91
2021/08/31 08:34:38;;;;;;;4.05;3.20;;;22.40;73.50;;;;;;4848561;29;20109;-92
2021/08/31 08:37:05;;;;;;;4.70;3.17;;;22.40;72.80;;;;;;4848394;29;20034;-89
2021/08/31 08:39:34;;;;;;;4.40;3.33;;;22.50;71.50;;;;;;4848595;29;20030;-92
2021/08/31 08:42:04;;;;;;;3.40;3.10;;;22.50;71.70;;;;;;4849666;29;20038;-92
2021/08/31 08:44:36;;;;;;;4.35;3.70;;;22.60;72.10;;;;;;4852233;29;20154;-92
2021/08/31 08:47:02;;;;;;;3.30;2.88;;;22.70;69.20;;;;;;4830230;29;20474;-92
2021/08/31 08:49:28;;;;;;;3.78;3.00;;;22.60;71.60;;;;;;4838820;29;20037;-93
2021/08/31 08:51:55;;;;;;;6.10;3.30;;;22.70;72.00;;;;;;4847356;29;20029;-93
2021/08/31 08:54:23;;;;;;;3.85;3.55;;;22.80;70.30;;;;;;4843659;29;20141;-94
2021/08/31 08:56:50;;;;;;;4.85;3.85;;;22.80;70.50;;;;;;4858496;29;20033;-93
2021/08/31 08:59:17;;;;;;;4.82;3.28;;;22.90;69.70;;;;;;4864922;29;20119;-94
2021/08/31 09:01:47;;;;;;;2.83;2.60;;;22.90;70.20;;;;;;4860225;29;20120;-93
2021/08/31 09:04:14;;;;;;;5.80;3.80;;;23.00;70.90;;;;;;4847815;29;20025;-93
2021/08/31 09:06:41;;;;;;;3.88;3.13;;;23.10;70.30;;;;;;4864256;29;20025;-94
2021/08/31 09:09:07;;;;;;;8.00;3.58;;;23.10;70.30;;;;;;4847473;29;20017;-94
2021/08/31 09:11:46;;;;;;;3.75;3.10;;;23.10;70.00;;;;;;4857760;29;20025;-94
2021/08/31 09:14:19;;;;;;;4.57;3.10;;;23.20;70.30;;;;;;4861101;29;20108;-94
2021/08/31 09:16:48;;;;;;;3.38;3.00;;;23.30;68.70;;;;;;4845533;29;20037;-93
2021/08/31 09:19:14;;;;;;;3.30;2.97;;;23.30;69.20;;;;;;4843210;29;20029;-94
2021/08/31 09:21:40;;;;;;;3.72;2.90;;;23.40;69.00;;;;;;4849630;29;20025;-93
2021/08/31 09:24:06;;;;;;;3.42;3.10;;;23.50;68.10;;;;;;4862729;29;20114;-92
2021/08/31 09:26:35;;;;;;;6.82;3.15;;;23.50;67.10;;;;;;4846236;29;20029;-92
2021/08/31 09:29:21;;;;;;;3.30;3.00;;;23.50;67.50;;;;;;4846347;29;20033;-93
2021/08/31 09:31:55;;;;;;;3.10;2.80;;;23.60;67.40;;;;;;4865030;29;20410;-93
2021/08/31 09:34:43;;;;;;;3.60;3.05;;;23.60;66.90;;;;;;4845720;29;20045;-93
2021/08/31 09:37:30;;;;;;;3.45;3.15;;;23.70;65.80;;;;;;4846466;29;20064;-94
2021/08/31 09:40:07;;;;;;;3.85;2.72;;;23.70;65.10;;;;;;4846461;29;20591;-93
2021/08/31 09:42:34;;;;;;;6.00;2.90;;;23.80;65.00;;;;;;4846518;29;20032;-93
2021/08/31 09:45:07;;;;;;;4.18;3.17;;;23.80;64.10;;;;;;4864458;29;20022;-95
2021/08/31 09:47:35;;;;;;;3.63;3.00;;;23.80;63.40;;;;;;4846071;29;20041;-93
2021/08/31 09:50:02;;;;;;;3.03;2.72;;;23.70;64.10;;;;;;4846263;29;20038;-94
2021/08/31 09:52:28;;;;;;;3.00;2.70;;;23.70;63.80;;;;;;4846989;29;20117;-94
2021/08/31 09:54:54;;;;;;;2.45;2.25;;;23.70;62.40;;;;;;4845962;29;20129;-93
2021/08/31 09:57:32;;;;;;;2.70;2.50;;;23.80;62.60;;;;;;4849591;29;20037;-93
2021/08/31 10:00:08;;;;;;;3.35;3.05;;;23.80;63.00;;;;;;4848417;29;20029;-93
2021/08/31 10:02:34;;;;;;;3.97;2.88;;;23.90;62.10;;;;;;4862516;29;20065;-93
2021/08/31 10:05:00;;;;;;;4.53;2.90;;;23.90;62.20;;;;;;4863930;29;20032;-93
2021/08/31 10:07:26;;;;;;;3.25;2.55;;;23.90;61.70;;;;;;4869662;29;20120;-93
2021/08/31 10:09:54;;;;;;;3.40;3.10;;;23.90;61.30;;;;;;4864211;29;20093;-92
2021/08/31 10:12:22;;;;;;;3.00;2.70;;;23.90;61.60;;;;;;4869926;29;20029;-95
2021/08/31 10:14:52;;;;;;;3.92;2.33;;;23.90;61.60;;;;;;4849227;29;20089;-94
2021/08/31 10:17:21;;;;;;;2.45;2.25;;;24.00;60.90;;;;;;4847948;29;20093;-92
2021/08/31 10:19:48;;;;;;;2.85;2.58;;;23.90;61.10;;;;;;4846755;29;20034;-92
2021/08/31 10:22:16;;;;;;;3.13;2.35;;;24.00;61.10;;;;;;4848595;29;20038;-91
2021/08/31 10:24:46;;;;;;;2.65;2.45;;;24.10;61.40;;;;;;4857895;29;20037;-93
2021/08/31 10:27:44;;;;;;;2.78;2.53;;;24.20;59.80;;;;;;4871110;29;20053;-92
2021/08/31 10:30:21;;;;;;;3.10;2.70;;;24.30;58.70;;;;;;4857610;29;20029;-94
2021/08/31 10:32:52;;;;;;;2.90;2.40;;;24.30;58.30;;;;;;4868713;29;20477;-92
2021/08/31 10:35:31;;;;;;;4.18;2.85;;;24.40;59.80;;;;;;4855393;29;20037;-92
2021/08/31 10:38:00;;;;;;;2.95;2.55;;;24.40;58.50;;;;;;4848411;29;20034;-91
2021/08/31 10:40:34;;;;;;;2.47;2.28;;;24.40;59.60;;;;;;4850288;29;20041;-92
2021/08/31 10:43:02;;;;;;;2.60;2.40;;;24.50;59.60;;;;;;4853125;29;20535;-93
2021/08/31 10:45:29;;;;;;;2.58;2.38;;;24.50;59.50;;;;;;4848955;29;20076;-91
2021/08/31 10:47:56;;;;;;;2.80;2.60;;;24.60;59.40;;;;;;4847837;29;20029;-91
2021/08/31 10:50:30;;;;;;;5.72;2.63;;;24.60;59.10;;;;;;4846620;29;20393;-91
2021/08/31 10:53:03;;;;;;;2.65;2.45;;;24.50;57.80;;;;;;4847554;29;20045;-92
2021/08/31 10:55:29;;;;;;;3.05;2.58;;;24.40;58.50;;;;;;4867145;29;20137;-92
2021/08/31 10:58:01;;;;;;;3.00;2.30;;;24.40;58.70;;;;;;4851275;29;20056;-92
2021/08/31 11:00:28;;;;;;;3.25;2.95;;;24.50;58.10;;;;;;4851695;29;20025;-95
2021/08/31 11:02:59;;;;;;;2.70;2.50;;;24.50;58.40;;;;;;4874119;29;20044;-92
2021/08/31 11:05:34;;;;;;;2.58;2.38;;;24.50;58.70;;;;;;4841193;29;20030;-92
2021/08/31 11:08:00;;;;;;;2.88;2.67;;;24.60;59.30;;;;;;4858371;29;20089;-93
2021/08/31 11:10:28;;;;;;;2.90;2.47;;;24.70;58.70;;;;;;4874284;29;20544;-92
2021/08/31 11:12:55;;;;;;;2.97;2.67;;;24.80;58.10;;;;;;4864363;29;20033;-91
2021/08/31 11:15:26;;;;;;;2.92;2.63;;;24.90;57.20;;;;;;4849344;29;20037;-93
2021/08/31 11:17:53;;;;;;;2.97;2.67;;;25.00;57.00;;;;;;4865894;29;20029;-94
2021/08/31 11:20:30;;;;;;;3.03;2.72;;;25.10;57.10;;;;;;4849287;29;20121;-93
2021/08/31 11:23:35;;;;;;;4.07;3.10;;;25.20;57.10;;;;;;4835120;29;20049;-94
2021/08/31 11:26:06;;;;;;;3.75;2.95;;;25.10;56.00;;;;;;4848712;29;20064;-94
2021/08/31 11:28:33;;;;;;;3.10;2.67;;;25.00;56.10;;;;;;4867527;29;20035;-92
2021/08/31 11:31:13;;;;;;;2.88;2.40;;;25.00;56.90;;;;;;4848850;29;20059;-95
2021/08/31 11:33:41;;;;;;;2.50;2.30;;;25.00;57.00;;;;;;4836088;29;20054;-96
2021/08/31 11:36:19;;;;;;;2.95;2.67;;;25.10;55.80;;;;;;4871709;29;20029;-94
2021/08/31 11:38:54;;;;;;;2.50;2.30;;;25.10;55.10;;;;;;4837065;29;20041;-95
2021/08/31 11:41:27;;;;;;;2.63;2.42;;;25.00;55.30;;;;;;4860836;29;20068;-95
2021/08/31 11:43:57;;;;;;;2.50;2.30;;;25.00;56.10;;;;;;4865715;29;20029;-94
2021/08/31 11:46:35;;;;;;;2.40;2.20;;;25.10;56.20;;;;;;4882435;29;20049;-94
2021/08/31 11:49:32;;;;;;;2.85;2.65;;;25.10;55.50;;;;;;4859627;29;20655;-95
2021/08/31 11:52:04;;;;;;;1.92;1.80;;;25.20;55.00;;;;;;4865686;29;20115;-93
2021/08/31 11:54:40;;;;;;;3.17;2.87;;;25.00;56.10;;;;;;4864070;29;20033;-93
2021/08/31 11:57:07;;;;;;;2.88;2.60;;;25.00;56.60;;;;;;4847288;29;20807;-94
2021/08/31 11:59:43;;;;;;;3.00;2.80;;;25.10;56.80;;;;;;4868064;29;20068;-94
2021/08/31 12:02:29;;;;;;;3.25;2.80;;;25.10;56.50;;;;;;4869703;29;20251;-94
2021/08/31 12:04:56;;;;;;;3.00;2.70;;;25.10;55.50;;;;;;4858992;29;20044;-95
2021/08/31 12:07:28;;;;;;;3.63;2.70;;;25.20;56.60;;;;;;4866403;29;20044;-96
2021/08/31 12:10:00;;;;;;;2.45;2.30;;;25.20;56.80;;;;;;4867586;29;20025;-95
2021/08/31 12:12:27;;;;;;;3.00;2.70;;;25.20;56.30;;;;;;4858521;29;20035;-95
2021/08/31 12:14:56;;;;;;;2.58;2.38;;;25.20;56.20;;;;;;4864671;29;20049;-94
2021/08/31 12:17:35;;;;;;;2.80;2.60;;;25.00;56.40;;;;;;4848896;29;20049;-93
2021/08/31 12:20:08;;;;;;;3.53;2.85;;;25.10;56.20;;;;;;4852485;29;20070;-95
2021/08/31 12:22:36;;;;;;;3.08;2.38;;;25.00;55.80;;;;;;4849222;29;20049;-94
2021/08/31 12:25:03;;;;;;;2.20;2.00;;;25.00;56.30;;;;;;4868839;29;20045;-94
2021/08/31 12:27:47;;;;;;;2.47;2.30;;;25.20;56.00;;;;;;4853081;29;20029;-94
2021/08/31 12:30:17;;;;;;;3.00;2.30;;;25.20;55.70;;;;;;4879015;29;20030;-94
2021/08/31 12:32:52;;;;;;;3.15;2.88;;;25.20;56.00;;;;;;4863381;29;20070;-93
2021/08/31 12:35:36;;;;;;;9.13;2.72;;;25.20;55.90;;;;;;4888909;29;20060;-95
2021/08/31 12:38:25;;;;;;;3.05;2.75;;;25.00;55.90;;;;;;4866852;29;20037;-94
2021/08/31 12:40:58;;;;;;;2.83;2.63;;;24.90;56.40;;;;;;4876682;29;20053;-94